createdAt,value
2023-04-19T00:00:42.386Z,11.77
2023-04-19T00:01:42.378Z,11.74
2023-04-19T00:02:42.844Z,11.79
2023-04-19T00:03:42.358Z,11.67
2023-04-19T00:04:42.351Z,11.78
2023-04-19T00:05:42.161Z,11.82
2023-04-19T00:06:42.129Z,11.67
2023-04-19T00:07:42.098Z,11.75
2023-04-19T00:08:42.048Z,11.74
2023-04-19T00:09:41.999Z,11.84
2023-04-19T00:10:41.961Z,11.75
2023-04-19T00:11:41.946Z,11.81
2023-04-19T00:12:41.882Z,11.74
2023-04-19T00:13:41.879Z,11.72
2023-04-19T00:14:42.152Z,11.75
2023-04-19T00:15:41.758Z,11.70
2023-04-19T00:16:41.781Z,11.66
2023-04-19T00:17:41.701Z,11.78
2023-04-19T00:18:41.643Z,11.70
2023-04-19T00:19:41.612Z,11.70
2023-04-19T00:20:41.570Z,11.60
2023-04-19T00:21:41.516Z,11.69
2023-04-19T00:22:41.482Z,11.78
2023-04-19T00:23:41.438Z,11.69
2023-04-19T00:24:41.398Z,11.75
2023-04-19T00:25:41.357Z,11.74
2023-04-19T00:26:41.334Z,11.75
2023-04-19T00:27:41.276Z,11.75
2023-04-19T00:28:41.268Z,11.64
2023-04-19T00:29:41.195Z,11.70
2023-04-19T00:30:41.163Z,11.72
2023-04-19T00:31:41.148Z,11.72
2023-04-19T00:32:41.138Z,11.69
2023-04-19T00:33:41.036Z,11.69
2023-04-19T00:34:41.008Z,11.70
2023-04-19T00:35:40.959Z,11.66
2023-04-19T00:36:40.927Z,11.64
2023-04-19T00:37:40.890Z,11.69
2023-04-19T00:38:40.835Z,11.70
2023-04-19T00:39:40.797Z,11.67
2023-04-19T00:40:40.757Z,11.74
2023-04-19T00:41:40.714Z,11.67
2023-04-19T00:42:40.709Z,11.59
2023-04-19T00:43:40.641Z,11.70
2023-04-19T00:44:40.605Z,11.79
2023-04-19T00:45:40.569Z,11.66
2023-04-19T00:46:40.617Z,11.64
2023-04-19T00:47:40.565Z,11.69
2023-04-19T00:48:40.435Z,11.66
2023-04-19T00:49:40.406Z,11.64
2023-04-19T00:50:40.355Z,11.66
2023-04-19T00:51:40.309Z,11.62
2023-04-19T00:52:40.289Z,11.60
2023-04-19T00:53:40.229Z,11.62
2023-04-19T00:54:40.199Z,11.63
2023-04-19T00:55:40.163Z,11.66
2023-04-19T00:56:40.126Z,11.67
2023-04-19T00:57:40.067Z,11.49
2023-04-19T00:58:40.047Z,11.75
2023-04-19T00:59:39.992Z,11.77
2023-04-19T01:00:39.951Z,11.69
2023-04-19T01:01:39.957Z,11.70
2023-04-19T01:02:40.109Z,11.54
2023-04-19T01:03:40.143Z,11.74
2023-04-19T01:04:39.826Z,11.67
2023-04-19T01:05:39.749Z,11.59
2023-04-19T01:06:39.719Z,11.69
2023-04-19T01:07:39.779Z,11.64
2023-04-19T01:08:39.632Z,11.59
2023-04-19T01:09:39.590Z,11.57
2023-04-19T01:10:39.552Z,11.62
2023-04-19T01:11:40.751Z,11.59
2023-04-19T01:12:39.481Z,11.75
2023-04-19T01:13:39.425Z,11.70
2023-04-19T01:14:39.400Z,11.56
2023-04-19T01:15:39.402Z,11.57
2023-04-19T01:16:39.389Z,11.69
2023-04-19T01:17:39.336Z,11.56
2023-04-19T01:18:39.236Z,11.63
2023-04-19T01:19:39.185Z,11.59
2023-04-19T01:20:39.383Z,11.66
2023-04-19T01:21:39.100Z,11.64
2023-04-19T01:22:39.069Z,11.64
2023-04-19T01:23:39.055Z,11.60
2023-04-19T01:24:38.992Z,11.60
2023-04-19T01:25:38.974Z,11.63
2023-04-19T01:26:38.905Z,11.57
2023-04-19T01:27:38.876Z,11.57
2023-04-19T01:28:38.822Z,11.62
2023-04-19T01:29:38.781Z,11.56
2023-04-19T01:30:38.742Z,11.67
2023-04-19T01:31:38.738Z,11.60
2023-04-19T01:32:38.697Z,11.70
2023-04-19T01:33:38.633Z,11.69
2023-04-19T01:34:38.582Z,11.66
2023-04-19T01:35:38.539Z,11.75
2023-04-19T01:36:38.499Z,11.64
2023-04-19T01:37:38.671Z,11.66
2023-04-19T01:38:38.427Z,11.66
2023-04-19T01:39:38.402Z,11.59
2023-04-19T01:40:38.345Z,11.62
2023-04-19T01:41:38.300Z,11.78
2023-04-19T01:42:38.266Z,11.74
2023-04-19T01:43:38.231Z,11.78
2023-04-19T01:44:38.188Z,11.62
2023-04-19T01:45:38.150Z,11.66
2023-04-19T01:46:38.124Z,11.70
2023-04-19T01:47:38.076Z,11.67
2023-04-19T01:48:38.027Z,11.77
2023-04-19T01:49:37.990Z,11.78
2023-04-19T01:50:37.997Z,11.77
2023-04-19T01:51:37.909Z,11.74
2023-04-19T01:52:37.854Z,11.81
2023-04-19T01:53:37.817Z,11.60
2023-04-19T01:54:37.778Z,11.78
2023-04-19T01:55:37.759Z,11.74
2023-04-19T01:56:37.714Z,11.66
2023-04-19T01:57:37.661Z,11.64
2023-04-19T01:58:37.633Z,11.70
2023-04-19T01:59:37.576Z,11.72
2023-04-19T02:00:37.553Z,11.77
2023-04-19T02:01:37.494Z,11.72
2023-04-19T02:02:37.556Z,11.75
2023-04-19T02:03:37.575Z,11.72
2023-04-19T02:04:37.372Z,11.63
2023-04-19T02:05:37.335Z,11.70
2023-04-19T02:06:37.444Z,11.77
2023-04-19T02:07:37.253Z,11.72
2023-04-19T02:08:37.229Z,11.72
2023-04-19T02:09:37.177Z,11.64
2023-04-19T02:10:37.147Z,11.70
2023-04-19T02:11:37.098Z,11.63
2023-04-19T02:12:37.059Z,11.57
2023-04-19T02:13:37.012Z,11.56
2023-04-19T02:14:36.978Z,11.63
2023-04-19T02:15:36.948Z,11.45
2023-04-19T02:16:36.943Z,11.59
2023-04-19T02:17:36.915Z,11.49
2023-04-19T02:18:36.815Z,11.57
2023-04-19T02:19:36.767Z,11.56
2023-04-19T02:20:36.757Z,11.51
2023-04-19T02:21:36.689Z,11.54
2023-04-19T02:22:36.653Z,11.48
2023-04-19T02:23:36.722Z,11.44
2023-04-19T02:24:36.577Z,11.33
2023-04-19T02:25:36.528Z,11.45
2023-04-19T02:26:36.519Z,11.38
2023-04-19T02:27:36.462Z,11.42
2023-04-19T02:28:36.433Z,11.31
2023-04-19T02:29:36.378Z,11.38
2023-04-19T02:30:36.330Z,11.28
2023-04-19T02:31:36.321Z,11.28
2023-04-19T02:32:36.287Z,11.11
2023-04-19T02:33:36.208Z,11.24
2023-04-19T02:34:36.164Z,11.24
2023-04-19T02:35:36.150Z,11.30
2023-04-19T02:36:36.092Z,11.16
2023-04-19T02:37:36.075Z,11.13
2023-04-19T02:38:36.032Z,11.19
2023-04-19T02:39:35.966Z,11.16
2023-04-19T02:40:35.960Z,11.11
2023-04-19T02:41:35.891Z,11.19
2023-04-19T02:42:35.842Z,11.09
2023-04-19T02:43:35.819Z,11.21
2023-04-19T02:44:35.766Z,11.16
2023-04-19T02:45:35.722Z,11.09
2023-04-19T02:46:35.721Z,11.09
2023-04-19T02:47:35.687Z,11.09
2023-04-19T02:48:35.599Z,11.03
2023-04-19T02:49:35.567Z,11.03
2023-04-19T02:50:35.521Z,10.91
2023-04-19T02:51:35.484Z,11.02
2023-04-19T02:52:35.437Z,10.98
2023-04-19T02:53:35.392Z,10.95
2023-04-19T02:54:35.369Z,10.90
2023-04-19T02:55:35.325Z,10.90
2023-04-19T02:56:35.282Z,10.86
2023-04-19T02:57:35.327Z,10.88
2023-04-19T02:58:35.193Z,10.75
2023-04-19T02:59:35.153Z,10.76
2023-04-19T03:00:35.125Z,10.80
2023-04-19T03:01:35.085Z,10.65
2023-04-19T03:02:35.100Z,10.78
2023-04-19T03:03:35.098Z,10.78
2023-04-19T03:04:34.988Z,10.68
2023-04-19T03:05:35.290Z,10.78
2023-04-19T03:06:34.882Z,10.70
2023-04-19T03:07:34.820Z,10.62
2023-04-19T03:08:34.789Z,10.47
2023-04-19T03:09:34.749Z,10.42
2023-04-19T03:10:34.715Z,10.43
2023-04-19T03:11:35.116Z,10.62
2023-04-19T03:12:34.638Z,10.49
2023-04-19T03:13:34.602Z,10.49
2023-04-19T03:14:34.539Z,10.36
2023-04-19T03:15:34.506Z,10.35
2023-04-19T03:16:34.461Z,10.52
2023-04-19T03:17:34.452Z,10.51
2023-04-19T03:18:34.386Z,10.52
2023-04-19T03:19:34.332Z,10.60
2023-04-19T03:20:34.298Z,10.49
2023-04-19T03:21:34.247Z,10.54
2023-04-19T03:22:34.207Z,10.62
2023-04-19T03:23:34.176Z,10.57
2023-04-19T03:24:37.079Z,10.72
2023-04-19T03:25:34.080Z,10.60
2023-04-19T03:26:34.256Z,10.69
2023-04-19T03:27:34.009Z,10.65
2023-04-19T03:28:33.965Z,10.68
2023-04-19T03:29:33.918Z,10.72
2023-04-19T03:30:33.889Z,10.75
2023-04-19T03:31:33.877Z,10.78
2023-04-19T03:32:33.868Z,10.72
2023-04-19T03:33:33.760Z,10.78
2023-04-19T03:34:33.721Z,10.87
2023-04-19T03:35:33.683Z,10.76
2023-04-19T03:36:33.631Z,10.78
2023-04-19T03:37:33.604Z,10.88
2023-04-19T03:38:33.550Z,10.80
2023-04-19T03:39:33.511Z,10.99
2023-04-19T03:40:33.469Z,10.88
2023-04-19T03:41:33.420Z,10.81
2023-04-19T03:42:33.384Z,10.81
2023-04-19T03:43:33.403Z,10.86
2023-04-19T03:44:33.300Z,10.91
2023-04-19T03:45:33.261Z,10.98
2023-04-19T03:46:33.253Z,10.86
2023-04-19T03:47:33.211Z,10.95
2023-04-19T03:48:33.137Z,11.02
2023-04-19T03:49:33.113Z,11.03
2023-04-19T03:50:33.058Z,11.02
2023-04-19T03:51:33.017Z,11.09
2023-04-19T03:52:32.976Z,11.01
2023-04-19T03:53:32.939Z,11.12
2023-04-19T03:54:32.890Z,11.11
2023-04-19T03:55:32.877Z,11.05
2023-04-19T03:56:32.877Z,11.09
2023-04-19T03:57:32.772Z,11.05
2023-04-19T03:58:32.728Z,11.12
2023-04-19T03:59:32.693Z,11.06
2023-04-19T04:00:32.648Z,11.09
2023-04-19T04:01:33.291Z,11.12
2023-04-19T04:02:32.681Z,11.08
2023-04-19T04:03:32.626Z,11.05
2023-04-19T04:04:32.629Z,11.12
2023-04-19T04:05:32.517Z,11.16
2023-04-19T04:06:32.414Z,11.16
2023-04-19T04:07:32.389Z,11.16
2023-04-19T04:08:32.323Z,11.13
2023-04-19T04:09:32.280Z,11.17
2023-04-19T04:10:32.243Z,11.17
2023-04-19T04:11:32.204Z,11.20
2023-04-19T04:12:32.165Z,11.12
2023-04-19T04:13:32.153Z,11.17
2023-04-19T04:14:32.077Z,11.26
2023-04-19T04:15:32.041Z,11.28
2023-04-19T04:16:32.104Z,11.16
2023-04-19T04:17:32.025Z,11.20
2023-04-19T04:18:31.917Z,11.16
2023-04-19T04:19:31.890Z,11.27
2023-04-19T04:20:31.843Z,11.31
2023-04-19T04:21:31.791Z,11.26
2023-04-19T04:22:31.750Z,11.19
2023-04-19T04:23:32.159Z,11.21
2023-04-19T04:24:31.666Z,11.31
2023-04-19T04:25:31.643Z,11.30
2023-04-19T04:26:32.065Z,11.35
2023-04-19T04:27:31.560Z,11.17
2023-04-19T04:28:31.514Z,11.27
2023-04-19T04:29:31.491Z,11.30
2023-04-19T04:30:31.445Z,11.23
2023-04-19T04:31:31.443Z,11.30
2023-04-19T04:32:31.366Z,11.28
2023-04-19T04:33:31.331Z,11.30
2023-04-19T04:34:31.291Z,11.28
2023-04-19T04:35:31.247Z,11.20
2023-04-19T04:36:31.241Z,11.21
2023-04-19T04:37:31.177Z,11.28
2023-04-19T04:38:31.121Z,11.30
2023-04-19T04:39:31.081Z,11.27
2023-04-19T04:40:31.055Z,11.21
2023-04-19T04:41:31.005Z,11.23
2023-04-19T04:42:30.970Z,11.28
2023-04-19T04:43:30.923Z,11.13
2023-04-19T04:44:30.908Z,11.26
2023-04-19T04:45:30.863Z,11.19
2023-04-19T04:46:30.800Z,11.12
2023-04-19T04:47:30.803Z,11.24
2023-04-19T04:48:30.721Z,11.26
2023-04-19T04:49:30.684Z,11.26
2023-04-19T04:50:30.671Z,11.16
2023-04-19T04:51:30.613Z,11.13
2023-04-19T04:52:30.556Z,11.11
2023-04-19T04:53:30.531Z,11.11
2023-04-19T04:54:30.522Z,11.19
2023-04-19T04:55:30.447Z,11.19
2023-04-19T04:56:30.424Z,11.16
2023-04-19T04:57:30.936Z,11.17
2023-04-19T04:58:30.317Z,11.08
2023-04-19T04:59:30.281Z,11.05
2023-04-19T05:00:30.239Z,11.13
2023-04-19T05:01:30.284Z,11.09
2023-04-19T05:02:30.203Z,11.06
2023-04-19T05:03:30.190Z,11.13
2023-04-19T05:04:30.135Z,11.17
2023-04-19T05:05:30.035Z,11.09
2023-04-19T05:06:29.991Z,11.26
2023-04-19T05:07:29.955Z,11.17
2023-04-19T05:08:30.279Z,11.20
2023-04-19T05:09:29.890Z,11.12
2023-04-19T05:10:29.849Z,11.21
2023-04-19T05:11:29.790Z,11.09
2023-04-19T05:12:29.753Z,11.11
2023-04-19T05:13:29.713Z,11.09
2023-04-19T05:14:29.663Z,11.16
2023-04-19T05:15:29.640Z,11.11
2023-04-19T05:16:29.613Z,11.08
2023-04-19T05:17:29.650Z,11.16
2023-04-19T05:18:29.502Z,11.13
2023-04-19T05:19:29.561Z,11.20
2023-04-19T05:20:29.452Z,11.19
2023-04-19T05:21:29.403Z,11.17
2023-04-19T05:22:29.351Z,11.16
2023-04-19T05:23:29.328Z,11.20
2023-04-19T05:24:29.274Z,11.13
2023-04-19T05:25:29.220Z,11.20
2023-04-19T05:26:29.186Z,11.20
2023-04-19T05:27:29.160Z,11.12
2023-04-19T05:28:29.115Z,11.20
2023-04-19T05:29:29.102Z,11.09
2023-04-19T05:30:29.019Z,11.11
2023-04-19T05:31:29.001Z,11.17
2023-04-19T05:32:28.990Z,11.21
2023-04-19T05:33:28.906Z,11.19
2023-04-19T05:34:28.864Z,11.11
2023-04-19T05:35:28.839Z,11.09
2023-04-19T05:36:28.783Z,11.26
2023-04-19T05:37:28.768Z,11.27
2023-04-19T05:38:28.713Z,11.38
2023-04-19T05:39:28.661Z,11.27
2023-04-19T05:40:28.615Z,11.21
2023-04-19T05:41:28.581Z,11.16
2023-04-19T05:42:28.533Z,11.26
2023-04-19T05:43:28.498Z,11.21
2023-04-19T05:44:28.467Z,11.19
2023-04-19T05:45:28.422Z,11.16
2023-04-19T05:46:28.412Z,11.45
2023-04-19T05:47:28.410Z,11.87
2023-04-19T05:48:28.294Z,12.33
2023-04-19T05:49:28.254Z,12.73
2023-04-19T05:50:28.213Z,12.81
2023-04-19T05:51:28.197Z,12.92
2023-04-19T05:52:28.136Z,13.03
2023-04-19T05:53:28.106Z,13.22
2023-04-19T05:54:28.131Z,13.48
2023-04-19T05:55:28.014Z,13.50
2023-04-19T05:56:27.981Z,13.73
2023-04-19T05:57:27.941Z,13.86
2023-04-19T05:58:27.953Z,14.09
2023-04-19T05:59:28.168Z,14.04
2023-04-19T06:00:27.844Z,14.02
2023-04-19T06:01:27.814Z,14.01
2023-04-19T06:02:27.833Z,14.44
2023-04-19T06:03:29.979Z,14.78
2023-04-19T06:04:27.807Z,14.87
2023-04-19T06:05:27.667Z,15.09
2023-04-19T06:06:27.961Z,14.87
2023-04-19T06:07:32.914Z,15.20
2023-04-19T06:08:27.511Z,15.19
2023-04-19T06:09:27.471Z,15.19
2023-04-19T06:10:36.729Z,14.93
2023-04-19T06:11:38.473Z,14.94
2023-04-19T06:12:27.367Z,14.78
2023-04-19T06:13:27.320Z,14.83
2023-04-19T06:14:27.290Z,15.15
2023-04-19T06:15:27.245Z,15.19
2023-04-19T06:16:27.225Z,15.28
2023-04-19T06:17:27.259Z,15.19
2023-04-19T06:18:27.142Z,15.33
2023-04-19T06:19:27.109Z,14.98
2023-04-19T06:20:27.058Z,15.15
2023-04-19T06:21:27.032Z,15.28
2023-04-19T06:22:27.002Z,15.12
2023-04-19T06:23:26.960Z,15.34
2023-04-19T06:24:26.924Z,15.38
2023-04-19T06:25:26.892Z,15.34
2023-04-19T06:26:26.856Z,16.01
2023-04-19T06:27:26.817Z,15.98
2023-04-19T06:28:26.775Z,16.04
2023-04-19T06:29:26.731Z,16.10
2023-04-19T06:30:26.699Z,15.59
2023-04-19T06:31:26.741Z,15.68
2023-04-19T06:32:26.682Z,15.85
2023-04-19T06:33:26.587Z,16.04
2023-04-19T06:34:26.547Z,16.04
2023-04-19T06:35:26.519Z,16.36
2023-04-19T06:36:26.496Z,16.23
2023-04-19T06:37:26.538Z,16.06
2023-04-19T06:38:26.426Z,16.11
2023-04-19T06:39:26.405Z,16.29
2023-04-19T06:40:26.337Z,16.29
2023-04-19T06:41:26.315Z,16.16
2023-04-19T06:42:26.262Z,16.42
2023-04-19T06:43:26.250Z,16.99
2023-04-19T06:44:26.191Z,16.95
2023-04-19T06:45:26.160Z,16.73
2023-04-19T06:46:26.229Z,17.05
2023-04-19T06:47:26.121Z,17.54
2023-04-19T06:48:26.052Z,17.51
2023-04-19T06:49:26.052Z,17.20
2023-04-19T06:50:25.978Z,17.24
2023-04-19T06:51:25.962Z,16.30
2023-04-19T06:52:25.910Z,15.13
2023-04-19T06:53:25.879Z,14.82
2023-04-19T06:54:25.843Z,14.17
2023-04-19T06:55:25.823Z,14.19
2023-04-19T06:56:25.771Z,13.96
2023-04-19T06:57:25.739Z,13.96
2023-04-19T06:58:25.737Z,13.94
2023-04-19T06:59:25.664Z,13.75
2023-04-19T07:00:25.634Z,13.31
2023-04-19T07:01:25.642Z,13.27
2023-04-19T07:02:25.679Z,13.32
2023-04-19T07:03:25.628Z,13.22
2023-04-19T07:04:25.628Z,13.24
2023-04-19T07:05:25.450Z,13.16
2023-04-19T07:06:25.434Z,13.46
2023-04-19T07:07:25.392Z,13.50
2023-04-19T07:08:29.822Z,13.36
2023-04-19T07:09:25.304Z,13.84
2023-04-19T07:10:25.269Z,13.86
2023-04-19T07:11:25.259Z,14.01
2023-04-19T07:12:25.206Z,14.11
2023-04-19T07:13:25.158Z,13.90
2023-04-19T07:14:25.112Z,13.91
2023-04-19T07:15:25.088Z,13.62
2023-04-19T07:16:25.114Z,13.35
2023-04-19T07:17:25.058Z,13.35
2023-04-19T07:18:24.984Z,13.24
2023-04-19T07:19:24.933Z,13.25
2023-04-19T07:20:24.890Z,13.09
2023-04-19T07:21:24.873Z,13.07
2023-04-19T07:22:24.822Z,13.09
2023-04-19T07:23:24.776Z,13.13
2023-04-19T07:24:24.740Z,13.10
2023-04-19T07:25:24.719Z,13.17
2023-04-19T07:26:24.666Z,13.41
2023-04-19T07:27:25.023Z,13.43
2023-04-19T07:28:24.588Z,13.32
2023-04-19T07:29:24.569Z,13.31
2023-04-19T07:30:24.521Z,13.43
2023-04-19T07:31:24.480Z,13.55
2023-04-19T07:32:24.486Z,13.69
2023-04-19T07:33:27.891Z,13.66
2023-04-19T07:34:24.363Z,13.55
2023-04-19T07:35:24.354Z,13.63
2023-04-19T07:36:24.290Z,13.68
2023-04-19T07:37:24.253Z,13.96
2023-04-19T07:38:24.221Z,14.49
2023-04-19T07:39:24.180Z,15.49
2023-04-19T07:40:24.138Z,15.91
2023-04-19T07:41:24.117Z,16.55
2023-04-19T07:42:24.077Z,16.85
2023-04-19T07:43:24.035Z,16.67
2023-04-19T07:44:23.997Z,16.85
2023-04-19T07:45:23.963Z,16.72
2023-04-19T07:46:23.957Z,16.41
2023-04-19T07:47:23.924Z,15.91
2023-04-19T07:48:24.510Z,15.59
2023-04-19T07:49:24.844Z,15.55
2023-04-19T07:50:23.777Z,15.91
2023-04-19T07:51:24.459Z,16.75
2023-04-19T07:52:23.726Z,16.67
2023-04-19T07:53:23.671Z,16.80
2023-04-19T07:54:23.652Z,16.84
2023-04-19T07:55:23.638Z,17.38
2023-04-19T07:56:23.571Z,16.73
2023-04-19T07:57:23.542Z,16.70
2023-04-19T07:58:23.508Z,17.06
2023-04-19T07:59:23.462Z,17.53
2023-04-19T08:00:23.437Z,17.63
2023-04-19T08:01:23.526Z,17.92
2023-04-19T08:02:23.635Z,17.73
2023-04-19T08:03:24.304Z,17.18
2023-04-19T08:04:23.807Z,16.92
2023-04-19T08:05:23.438Z,17.17
2023-04-19T08:06:23.228Z,17.33
2023-04-19T08:07:23.411Z,17.65
2023-04-19T08:08:23.174Z,17.71
2023-04-19T08:09:23.480Z,17.45
2023-04-19T08:10:23.093Z,17.63
2023-04-19T08:11:23.056Z,17.06
2023-04-19T08:12:34.459Z,16.44
2023-04-19T08:13:22.989Z,16.63
2023-04-19T08:14:34.756Z,16.88
2023-04-19T08:16:03.728Z,16.77
2023-04-19T08:16:56.257Z,16.73
2023-04-19T08:17:25.937Z,16.82
2023-04-19T08:18:22.885Z,16.84
2023-04-19T08:19:22.791Z,16.55
2023-04-19T08:20:22.764Z,16.66
2023-04-19T08:21:28.603Z,17.07
2023-04-19T08:22:22.696Z,17.25
2023-04-19T08:23:25.983Z,17.39
2023-04-19T08:24:22.645Z,17.36
2023-04-19T08:25:22.637Z,17.68
2023-04-19T08:26:22.574Z,17.33
2023-04-19T08:27:22.546Z,17.54
2023-04-19T08:28:22.509Z,17.39
2023-04-19T08:29:22.469Z,16.87
2023-04-19T08:30:22.439Z,16.69
2023-04-19T08:31:22.565Z,16.90
2023-04-19T08:32:22.432Z,16.63
2023-04-19T08:33:22.348Z,16.65
2023-04-19T08:34:22.328Z,16.87
2023-04-19T08:35:22.273Z,16.69
2023-04-19T08:36:28.735Z,16.57
2023-04-19T08:37:22.209Z,16.77
2023-04-19T08:38:22.182Z,16.55
2023-04-19T08:39:32.319Z,16.36
2023-04-19T08:40:22.128Z,16.14
2023-04-19T08:41:22.089Z,16.14
2023-04-19T08:42:33.243Z,16.17
2023-04-19T08:43:22.026Z,16.55
2023-04-19T08:44:32.599Z,17.00
2023-04-19T08:45:27.036Z,17.54
2023-04-19T08:46:21.937Z,17.55
2023-04-19T08:47:30.214Z,17.24
2023-04-19T08:48:21.864Z,17.03
2023-04-19T08:49:21.814Z,16.85
2023-04-19T08:50:32.112Z,16.69
2023-04-19T08:51:21.750Z,16.26
2023-04-19T08:52:21.732Z,16.13
2023-04-19T08:53:25.780Z,16.07
2023-04-19T08:54:21.663Z,16.44
2023-04-19T08:55:21.649Z,16.48
2023-04-19T08:56:34.581Z,16.77
2023-04-19T08:57:21.559Z,17.40
2023-04-19T08:58:30.694Z,17.18
2023-04-19T08:59:21.676Z,16.77
2023-04-19T09:00:21.490Z,16.72
2023-04-19T09:01:30.894Z,16.55
2023-04-19T09:02:21.481Z,16.08
2023-04-19T09:03:21.860Z,16.42
2023-04-19T09:04:34.693Z,16.45
2023-04-19T09:05:21.474Z,16.34
2023-04-19T09:06:21.555Z,16.51
2023-04-19T09:07:21.228Z,16.54
2023-04-19T09:08:21.204Z,16.72
2023-04-19T09:09:34.090Z,16.82
2023-04-19T09:10:21.205Z,16.69
2023-04-19T09:11:21.098Z,16.27
2023-04-19T09:12:21.064Z,15.99
2023-04-19T09:13:21.036Z,16.41
2023-04-19T09:14:21.158Z,16.51
2023-04-19T09:15:20.974Z,16.26
2023-04-19T09:16:20.975Z,15.89
2023-04-19T09:17:20.904Z,15.98
2023-04-19T09:18:20.871Z,16.40
2023-04-19T09:19:24.906Z,16.81
2023-04-19T09:20:20.861Z,17.09
2023-04-19T09:21:20.800Z,17.09
2023-04-19T09:22:20.757Z,16.88
2023-04-19T09:23:21.063Z,17.09
2023-04-19T09:24:20.694Z,16.75
2023-04-19T09:26:23.512Z,16.23
2023-04-19T09:27:20.576Z,15.78
2023-04-19T09:28:20.558Z,15.46
2023-04-19T09:29:20.546Z,15.11
2023-04-19T09:30:30.042Z,15.28
2023-04-19T09:31:39.040Z,15.52
2023-04-19T09:32:20.546Z,15.78
2023-04-19T09:33:20.481Z,15.71
2023-04-19T09:34:20.487Z,15.88
2023-04-19T09:35:20.317Z,15.93
2023-04-19T09:36:20.286Z,16.30
2023-04-19T09:37:34.948Z,16.07
2023-04-19T09:38:20.218Z,15.76
2023-04-19T09:39:20.228Z,15.88
2023-04-19T09:40:20.159Z,15.95
2023-04-19T09:41:20.119Z,16.10
2023-04-19T09:42:32.880Z,16.65
2023-04-19T09:43:49.741Z,16.60
2023-04-19T09:45:29.319Z,16.69
2023-04-19T09:46:19.986Z,16.75
2023-04-19T09:47:19.928Z,16.90
2023-04-19T09:48:19.891Z,17.39
2023-04-19T09:49:25.267Z,17.06
2023-04-19T09:50:25.249Z,16.62
2023-04-19T09:51:19.823Z,16.42
2023-04-19T09:52:19.761Z,16.42
2023-04-19T09:53:19.736Z,16.55
2023-04-19T09:54:19.711Z,16.65
2023-04-19T09:56:19.644Z,16.48
2023-04-19T09:57:19.598Z,15.99
2023-04-19T09:58:19.568Z,16.13
2023-04-19T09:59:21.371Z,16.29
2023-04-19T10:00:19.503Z,16.18
2023-04-19T10:01:19.582Z,15.49
2023-04-19T10:02:19.588Z,15.46
2023-04-19T10:03:19.473Z,15.51
2023-04-19T10:04:28.946Z,15.56
2023-04-19T10:05:21.281Z,15.80
2023-04-19T10:06:35.613Z,15.58
2023-04-19T10:08:19.253Z,15.84
2023-04-19T10:09:19.242Z,15.62
2023-04-19T10:10:21.520Z,15.93
2023-04-19T10:11:19.170Z,15.66
2023-04-19T10:13:21.414Z,15.71
2023-04-19T10:14:19.085Z,15.66
2023-04-19T10:15:19.020Z,16.14
2023-04-19T10:16:20.486Z,16.65
2023-04-19T10:17:19.057Z,16.60
2023-04-19T10:18:18.936Z,16.80
2023-04-19T10:19:18.891Z,16.90
2023-04-19T10:20:18.884Z,16.85
2023-04-19T10:21:18.840Z,16.99
2023-04-19T10:22:18.800Z,16.69
2023-04-19T10:23:18.833Z,16.36
2023-04-19T10:24:18.735Z,16.10
2023-04-19T10:25:18.694Z,15.78
2023-04-19T10:26:18.661Z,15.53
2023-04-19T10:27:18.636Z,15.49
2023-04-19T10:28:18.621Z,15.05
2023-04-19T10:29:18.568Z,15.28
2023-04-19T10:30:18.553Z,15.38
2023-04-19T10:31:18.525Z,15.37
2023-04-19T10:32:18.639Z,15.53
2023-04-19T10:33:18.437Z,15.98
2023-04-19T10:34:18.416Z,16.60
2023-04-19T10:35:18.404Z,16.90
2023-04-19T10:36:18.340Z,16.82
2023-04-19T10:37:18.305Z,16.90
2023-04-19T10:38:18.295Z,16.70
2023-04-19T10:39:18.240Z,16.42
2023-04-19T10:40:18.225Z,16.10
2023-04-19T10:41:18.798Z,16.10
2023-04-19T10:42:18.153Z,16.23
2023-04-19T10:43:18.126Z,16.45
2023-04-19T10:44:18.080Z,16.23
2023-04-19T10:45:18.051Z,16.06
2023-04-19T10:46:18.099Z,15.99
2023-04-19T10:47:18.008Z,15.96
2023-04-19T10:48:17.953Z,16.26
2023-04-19T10:49:18.029Z,16.57
2023-04-19T10:50:17.887Z,16.34
2023-04-19T10:51:17.849Z,16.75
2023-04-19T10:52:17.838Z,16.99
2023-04-19T10:53:17.787Z,17.27
2023-04-19T10:54:17.755Z,17.09
2023-04-19T10:55:17.724Z,16.84
2023-04-19T10:56:17.696Z,16.40
2023-04-19T10:57:17.710Z,15.80
2023-04-19T10:58:17.649Z,16.10
2023-04-19T10:59:17.815Z,16.54
2023-04-19T11:00:17.573Z,16.67
2023-04-19T11:01:17.641Z,16.78
2023-04-19T11:02:17.584Z,16.73
2023-04-19T11:03:17.582Z,16.67
2023-04-19T11:04:17.650Z,16.67
2023-04-19T11:05:18.462Z,16.51
2023-04-19T11:06:17.373Z,16.55
2023-04-19T11:07:17.338Z,16.30
2023-04-19T11:08:17.310Z,16.25
2023-04-19T11:09:17.420Z,15.89
2023-04-19T11:10:17.257Z,15.99
2023-04-19T11:11:17.256Z,16.40
2023-04-19T11:12:17.248Z,16.63
2023-04-19T11:13:17.238Z,16.22
2023-04-19T11:14:17.119Z,16.18
2023-04-19T11:15:17.082Z,16.36
2023-04-19T11:16:19.302Z,16.42
2023-04-19T11:17:17.017Z,16.40
2023-04-19T11:18:17.059Z,16.60
2023-04-19T11:19:17.287Z,15.95
2023-04-19T11:20:16.929Z,15.85
2023-04-19T11:21:16.889Z,15.78
2023-04-19T11:22:16.885Z,15.55
2023-04-19T11:23:16.828Z,15.81
2023-04-19T11:24:16.811Z,16.16
2023-04-19T11:25:16.782Z,16.30
2023-04-19T11:26:16.735Z,16.52
2023-04-19T11:27:16.707Z,16.17
2023-04-19T11:28:16.667Z,15.78
2023-04-19T11:29:17.208Z,14.82
2023-04-19T11:30:16.623Z,14.69
2023-04-19T11:31:16.595Z,15.07
2023-04-19T11:32:16.546Z,15.48
2023-04-19T11:33:16.504Z,15.43
2023-04-19T11:34:16.741Z,15.38
2023-04-19T11:35:16.446Z,15.41
2023-04-19T11:36:16.420Z,15.62
2023-04-19T11:37:16.402Z,16.10
2023-04-19T11:38:16.345Z,16.07
2023-04-19T11:39:16.351Z,15.96
2023-04-19T11:40:16.302Z,15.51
2023-04-19T11:41:16.250Z,15.59
2023-04-19T11:42:16.211Z,15.58
2023-04-19T11:43:16.386Z,15.76
2023-04-19T11:44:16.442Z,15.84
2023-04-19T11:45:28.287Z,15.76
2023-04-19T11:46:16.107Z,16.14
2023-04-19T11:47:16.051Z,15.93
2023-04-19T11:48:16.123Z,16.27
2023-04-19T11:49:15.981Z,16.48
2023-04-19T11:50:15.976Z,16.48
2023-04-19T11:51:15.918Z,16.04
2023-04-19T11:52:15.900Z,15.76
2023-04-19T11:53:15.865Z,15.60
2023-04-19T11:54:15.997Z,15.68
2023-04-19T11:55:15.788Z,15.78
2023-04-19T11:56:15.758Z,15.43
2023-04-19T11:57:15.755Z,15.41
2023-04-19T11:58:15.713Z,15.33
2023-04-19T11:59:15.861Z,15.43
2023-04-19T12:00:15.621Z,15.22
2023-04-19T12:01:15.623Z,15.23
2023-04-19T12:02:15.585Z,15.38
2023-04-19T12:03:15.772Z,15.66
2023-04-19T12:04:15.985Z,15.81
2023-04-19T12:05:15.574Z,16.01
2023-04-19T12:06:15.440Z,16.18
2023-04-19T12:07:15.412Z,15.74
2023-04-19T12:08:15.366Z,15.64
2023-04-19T12:09:15.331Z,15.53
2023-04-19T12:10:15.313Z,15.77
2023-04-19T12:11:15.271Z,15.81
2023-04-19T12:12:15.237Z,16.10
2023-04-19T12:13:15.223Z,16.01
2023-04-19T12:14:15.614Z,15.91
2023-04-19T12:15:15.186Z,16.03
2023-04-19T12:16:15.216Z,15.85
2023-04-19T12:17:15.081Z,15.89
2023-04-19T12:18:15.087Z,15.80
2023-04-19T12:19:15.126Z,15.56
2023-04-19T12:20:14.982Z,15.68
2023-04-19T12:21:14.951Z,15.30
2023-04-19T12:22:14.938Z,15.13
2023-04-19T12:23:14.883Z,15.05
2023-04-19T12:24:14.860Z,15.05
2023-04-19T12:25:14.817Z,15.12
2023-04-19T12:26:14.778Z,15.11
2023-04-19T12:27:14.752Z,15.03
2023-04-19T12:28:14.712Z,15.25
2023-04-19T12:29:14.966Z,15.11
2023-04-19T12:30:14.650Z,15.19
2023-04-19T12:31:14.643Z,14.94
2023-04-19T12:32:14.679Z,14.83
2023-04-19T12:33:14.606Z,14.79
2023-04-19T12:34:14.516Z,14.78
2023-04-19T12:35:14.501Z,14.83
2023-04-19T12:36:14.449Z,14.95
2023-04-19T12:37:14.418Z,15.11
2023-04-19T12:38:14.384Z,15.15
2023-04-19T12:39:14.404Z,15.23
2023-04-19T12:40:14.318Z,14.95
2023-04-19T12:41:14.313Z,14.78
2023-04-19T12:42:14.293Z,14.80
2023-04-19T12:43:14.221Z,14.75
2023-04-19T12:44:14.350Z,14.85
2023-04-19T12:45:14.162Z,14.98
2023-04-19T12:46:14.333Z,15.00
2023-04-19T12:47:14.195Z,14.82
2023-04-19T12:48:14.042Z,14.69
2023-04-19T12:49:14.400Z,14.79
2023-04-19T12:50:13.965Z,15.00
2023-04-19T12:51:13.952Z,15.12
2023-04-19T12:52:13.897Z,14.98
2023-04-19T12:53:13.863Z,15.01
2023-04-19T12:54:13.848Z,14.95
2023-04-19T12:55:13.787Z,14.94
2023-04-19T12:56:13.752Z,15.16
2023-04-19T12:57:13.729Z,14.85